KIAB/IAB METAR and TAF weather

Enter ICAO airport designator
Station Type Date Time Source
KIAB METAR 2020/04/07 05:56 UTC NOAA

KIAB 070556Z AUTO 21015KT 10SM OVC014 17/15 A2985 RMK AO2 SLP105 T01710145 10211 20168 402330129 50002 $


Station Type Date Time Source
KIAB Decoded METAR 2020/04/07 05:56 UTC NOAA

McConnell Air Force Base, KS, United States (KIAB) 37-37N 097-16W
Apr 07, 2020 - 01:56 AM EDT / 2020.04.07 0556 UTC
Wind: from the SSW (210 degrees) at 17 MPH (15 KT):0
Visibility: 10 mile(s):0
Sky conditions: overcast
Temperature: 62.8 F (17.1 C)
Dew Point: 58.1 F (14.5 C)
Relative Humidity: 84%
Pressure (altimeter): 29.85 in. Hg (1010 hPa)
Pressure tendency: 0.01 inches (0.2 hPa) higher than three hours ago
ob: KIAB 070556Z AUTO 21015KT 10SM OVC014 17/15 A2985 RMK AO2 SLP105 T01710145 10211 20168 402330129 50002
cycle: 6

Station Type Date Time Source
KIAB TAF 2020/04/07 04:28 UTC NOAA

TAF
AMD KIAB 070409Z 0704/0808 17012KT 9999 BKN020 550103 QNH2979INS
BECMG 0705/0706 19012KT 8000 BR OVC010 550103 QNH2977INS
TEMPO 0709/0712 3200 BR OVC005
BECMG 0714/0715 21010G15KT 4800 BR OVC007 QNH2976INS
BECMG 0717/0718 21015KT 9999 NSW SCT015 BKN020 QNH2974INS
BECMG 0720/0721 VRB06KT 9999 SKC QNH2974INS TX24/0720Z TN14/0711Z

Example: see airport list